createdAt,value
2019-06-08T00:00:34.089Z,18.47
2019-06-08T00:03:04.991Z,16.53
2019-06-08T00:05:35.839Z,17.17
2019-06-08T00:08:06.572Z,17.03
2019-06-08T00:10:37.266Z,18.20
2019-06-08T00:13:08.061Z,16.87
2019-06-08T00:15:38.924Z,17.30
2019-06-08T00:18:09.814Z,13.83
2019-06-08T00:20:41.592Z,15.47
2019-06-08T00:23:13.753Z,15.73
2019-06-08T00:25:44.720Z,18.03
2019-06-08T00:28:16.104Z,18.27
2019-06-08T00:30:47.096Z,16.93
2019-06-08T00:33:18.570Z,19.37
2019-06-08T00:35:50.378Z,18.43
2019-06-08T00:38:22.972Z,18.13
2019-06-08T00:40:53.959Z,18.80
2019-06-08T00:43:25.525Z,18.57
2019-06-08T00:45:56.272Z,19.13
2019-06-08T00:48:27.165Z,18.93
2019-06-08T00:50:58.068Z,18.57
2019-06-08T00:53:29.639Z,18.63
2019-06-08T00:56:00.785Z,19.13
2019-06-08T00:58:31.685Z,19.73
2019-06-08T01:01:03.751Z,19.90
2019-06-08T01:03:34.299Z,20.73
2019-06-08T01:06:05.106Z,21.63
2019-06-08T01:08:36.037Z,20.90
2019-06-08T01:11:06.777Z,19.90
2019-06-08T01:13:37.594Z,21.10
2019-06-08T01:16:08.449Z,20.63
2019-06-08T01:18:39.422Z,19.10
2019-06-08T01:21:10.171Z,20.43
2019-06-08T01:23:41.038Z,19.43
2019-06-08T01:26:11.945Z,20.43
2019-06-08T01:28:42.638Z,19.90
2019-06-08T01:31:13.432Z,20.33
2019-06-08T01:33:44.330Z,20.23
2019-06-08T01:36:15.174Z,20.60
2019-06-08T01:38:46.236Z,21.70
2019-06-08T01:41:17.056Z,23.00
2019-06-08T01:43:47.917Z,23.10
2019-06-08T01:46:18.647Z,21.07
2019-06-08T01:48:49.454Z,23.47
2019-06-08T01:51:20.473Z,21.80
2019-06-08T01:53:51.137Z,21.03
2019-06-08T01:56:22.916Z,22.30
2019-06-08T01:58:53.648Z,21.97
2019-06-08T02:01:25.538Z,23.27
2019-06-08T02:03:56.471Z,22.50
2019-06-08T02:06:28.444Z,22.47
2019-06-08T02:08:59.214Z,22.77
2019-06-08T02:11:30.828Z,23.43
2019-06-08T02:14:01.656Z,23.23
2019-06-08T02:16:33.378Z,21.93
2019-06-08T02:19:04.274Z,23.83
2019-06-08T02:21:35.023Z,21.80
2019-06-08T02:24:06.282Z,22.57
2019-06-08T02:26:39.730Z,22.43
2019-06-08T02:29:12.211Z,24.10
2019-06-08T02:31:47.681Z,24.27
2019-06-08T02:34:16.140Z,22.83
2019-06-08T02:36:46.869Z,15.67
2019-06-08T02:39:18.197Z,20.57
2019-06-08T02:41:49.412Z,23.00
2019-06-08T02:44:20.818Z,22.37
2019-06-08T02:46:52.237Z,24.10
2019-06-08T02:49:24.564Z,24.83
2019-06-08T02:51:56.039Z,24.53
2019-06-08T02:54:41.760Z,25.23
2019-06-08T02:57:14.317Z,22.50
2019-06-08T02:59:47.880Z,22.97
2019-06-08T03:02:21.661Z,24.37
2019-06-08T03:04:53.547Z,22.47
2019-06-08T03:07:26.870Z,23.33
2019-06-08T03:09:58.355Z,24.53
2019-06-08T03:12:32.745Z,23.50
2019-06-08T03:15:08.026Z,22.80
2019-06-08T03:17:40.153Z,24.00
2019-06-08T03:20:12.227Z,23.67
2019-06-08T03:22:44.030Z,24.43
2019-06-08T03:25:16.269Z,24.47
2019-06-08T03:27:47.100Z,23.00
2019-06-08T03:30:19.762Z,23.60
2019-06-08T03:32:56.212Z,24.70
2019-06-08T03:35:23.554Z,23.90
2019-06-08T03:37:56.049Z,23.33
2019-06-08T03:40:26.778Z,23.67
2019-06-08T03:42:59.431Z,24.03
2019-06-08T03:45:31.430Z,24.63
2019-06-08T03:48:02.137Z,24.37
2019-06-08T03:50:33.090Z,24.97
2019-06-08T03:53:04.039Z,23.70
2019-06-08T03:55:35.400Z,23.77
2019-06-08T03:58:06.360Z,24.70
2019-06-08T04:00:40.279Z,24.90
2019-06-08T04:03:12.459Z,25.60
2019-06-08T04:05:44.901Z,24.80
2019-06-08T04:08:17.047Z,25.07
2019-06-08T04:10:50.132Z,23.70
2019-06-08T04:13:21.074Z,25.47
2019-06-08T04:15:52.081Z,23.83
2019-06-08T04:18:22.969Z,22.47
2019-06-08T04:20:53.911Z,22.37
2019-06-08T04:23:24.667Z,21.15
2019-06-08T04:25:55.535Z,22.37
2019-06-08T04:28:26.420Z,26.52
2019-06-08T04:30:57.235Z,26.65
2019-06-08T04:33:28.443Z,28.52
2019-06-08T04:35:59.261Z,29.30
2019-06-08T04:38:30.157Z,30.25
2019-06-08T04:41:00.957Z,30.57
2019-06-08T04:43:31.987Z,28.32
2019-06-08T04:46:02.833Z,27.48
2019-06-08T04:48:33.745Z,24.80
2019-06-08T04:51:04.662Z,24.02
2019-06-08T04:53:36.490Z,24.85
2019-06-08T04:56:07.307Z,23.62
2019-06-08T04:58:39.869Z,24.02
2019-06-08T05:01:10.653Z,23.62
2019-06-08T05:03:43.308Z,24.98
2019-06-08T05:06:14.373Z,26.12
2019-06-08T05:08:45.237Z,24.60
2019-06-08T05:11:17.168Z,24.72
2019-06-08T05:13:49.411Z,25.40
2019-06-08T05:16:21.792Z,26.17
2019-06-08T05:18:52.980Z,24.90
2019-06-08T05:21:23.746Z,24.63
2019-06-08T05:23:58.513Z,26.12
2019-06-08T05:26:27.375Z,27.27
2019-06-08T05:28:58.515Z,25.57
2019-06-08T05:31:29.339Z,24.92
2019-06-08T05:34:00.261Z,26.50
2019-06-08T05:36:30.926Z,25.68
2019-06-08T05:39:02.193Z,25.97
2019-06-08T05:41:33.179Z,24.25
2019-06-08T05:44:05.126Z,24.87
2019-06-08T05:46:36.079Z,24.67
2019-06-08T05:49:06.923Z,23.60
2019-06-08T05:51:37.752Z,24.15
2019-06-08T05:54:08.607Z,23.73
2019-06-08T05:56:39.821Z,22.90
2019-06-08T05:59:11.879Z,22.60
2019-06-08T06:01:44.524Z,22.27
2019-06-08T06:04:16.899Z,23.40
2019-06-08T06:06:49.261Z,22.30
2019-06-08T06:09:20.213Z,24.57
2019-06-08T06:11:52.046Z,21.90
2019-06-08T06:14:23.511Z,23.75
2019-06-08T06:16:55.514Z,22.37
2019-06-08T06:19:26.931Z,22.30
2019-06-08T06:21:57.880Z,21.80
2019-06-08T06:24:29.816Z,20.32
2019-06-08T06:27:00.602Z,22.40
2019-06-08T06:29:31.571Z,20.85
2019-06-08T06:32:02.296Z,20.05
2019-06-08T06:34:33.390Z,20.48
2019-06-08T06:37:04.371Z,20.57
2019-06-08T06:39:35.423Z,20.60
2019-06-08T06:42:06.338Z,19.70
2019-06-08T06:44:37.295Z,22.37
2019-06-08T06:47:08.892Z,19.60
2019-06-08T06:49:39.691Z,19.90
2019-06-08T06:52:10.559Z,19.35
2019-06-08T06:54:42.674Z,18.60
2019-06-08T06:57:15.279Z,19.75
2019-06-08T06:59:47.204Z,23.57
2019-06-08T07:02:18.563Z,21.90
2019-06-08T07:04:49.963Z,22.82
2019-06-08T07:07:21.232Z,20.02
2019-06-08T07:09:52.730Z,19.95
2019-06-08T07:12:23.716Z,18.50
2019-06-08T07:14:55.500Z,20.60
2019-06-08T07:17:26.363Z,19.57
2019-06-08T07:19:57.130Z,19.37
2019-06-08T07:22:27.956Z,19.55
2019-06-08T07:24:58.885Z,20.32
2019-06-08T07:27:29.771Z,20.92
2019-06-08T07:30:00.530Z,21.02
2019-06-08T07:32:31.443Z,18.57
2019-06-08T07:35:02.409Z,20.20
2019-06-08T07:37:33.307Z,19.60
2019-06-08T07:40:08.058Z,20.48
2019-06-08T07:42:39.866Z,20.08
2019-06-08T07:45:10.968Z,20.00
2019-06-08T07:47:42.153Z,18.87
2019-06-08T07:50:13.148Z,18.23
2019-06-08T07:52:44.364Z,17.90
2019-06-08T07:55:16.247Z,17.02
2019-06-08T07:57:48.628Z,18.50
2019-06-08T08:00:22.221Z,18.15
2019-06-08T08:02:54.306Z,17.62
2019-06-08T08:05:26.026Z,16.60
2019-06-08T08:07:56.983Z,18.52
2019-06-08T08:10:28.153Z,17.40
2019-06-08T08:12:59.085Z,15.78
2019-06-08T08:15:30.066Z,13.08
2019-06-08T08:18:02.104Z,14.10
2019-06-08T08:20:35.161Z,12.50
2019-06-08T08:23:09.192Z,11.22
2019-06-08T08:25:41.478Z,12.03
2019-06-08T08:28:13.733Z,8.70
2019-06-08T08:30:49.320Z,7.72
2019-06-08T08:33:22.539Z,6.92
2019-06-08T08:35:55.565Z,7.40
2019-06-08T08:38:27.976Z,5.95
2019-06-08T08:41:07.373Z,4.95
2019-06-08T08:43:37.719Z,3.77
2019-06-08T08:46:11.303Z,3.95
2019-06-08T08:48:43.761Z,3.22
2019-06-08T08:51:20.443Z,3.40
2019-06-08T08:53:53.830Z,2.40
2019-06-08T08:56:21.492Z,2.35
2019-06-08T08:58:52.504Z,2.10
2019-06-08T09:01:24.045Z,2.10
2019-06-08T09:03:57.063Z,2.17
2019-06-08T09:06:28.087Z,2.33
2019-06-08T09:09:03.641Z,1.90
2019-06-08T09:11:41.209Z,1.75
2019-06-08T09:14:13.940Z,2.20
2019-06-08T09:16:44.318Z,2.00
2019-06-08T09:19:20.627Z,1.70
2019-06-08T09:21:49.067Z,1.75
2019-06-08T09:24:20.188Z,1.80
2019-06-08T09:26:52.412Z,1.80
2019-06-08T09:29:24.693Z,2.27
2019-06-08T09:31:58.519Z,2.55
2019-06-08T09:34:29.425Z,1.47
2019-06-08T09:37:02.830Z,1.55
2019-06-08T09:39:33.286Z,1.87
2019-06-08T09:42:05.060Z,1.60
2019-06-08T09:44:38.059Z,1.25
2019-06-08T09:47:12.381Z,1.40
2019-06-08T09:49:42.126Z,1.30
2019-06-08T09:52:12.829Z,1.70
2019-06-08T09:54:44.064Z,1.22
2019-06-08T09:57:15.104Z,1.05
2019-06-08T09:59:48.225Z,1.10
2019-06-08T10:02:18.884Z,1.12
2019-06-08T10:04:51.449Z,1.40
2019-06-08T10:07:23.564Z,0.80
2019-06-08T10:09:58.505Z,1.10
2019-06-08T10:12:28.308Z,1.10
2019-06-08T10:15:00.613Z,1.15
2019-06-08T10:17:32.709Z,0.80
2019-06-08T10:20:05.234Z,0.75
2019-06-08T10:22:37.497Z,0.82
2019-06-08T10:25:11.195Z,0.90
2019-06-08T10:27:41.542Z,0.70
2019-06-08T10:30:12.735Z,0.60
2019-06-08T10:32:43.739Z,0.70
2019-06-08T10:35:20.646Z,0.80
2019-06-08T10:37:51.192Z,0.80
2019-06-08T10:40:21.700Z,0.75
2019-06-08T10:42:52.632Z,1.07
2019-06-08T10:45:23.870Z,0.90
2019-06-08T10:47:54.732Z,1.00
2019-06-08T10:50:28.822Z,1.20
2019-06-08T10:53:02.842Z,0.90
2019-06-08T10:55:32.885Z,1.07
2019-06-08T10:58:06.578Z,1.00
2019-06-08T11:00:38.832Z,1.12
2019-06-08T11:03:11.839Z,1.30
2019-06-08T11:05:42.712Z,0.90
2019-06-08T11:08:14.959Z,1.07
2019-06-08T11:10:47.516Z,0.98
2019-06-08T11:13:18.937Z,0.80
2019-06-08T11:15:50.168Z,1.05
2019-06-08T11:18:21.381Z,0.70
2019-06-08T11:20:52.176Z,0.57
2019-06-08T11:23:23.179Z,0.85
2019-06-08T11:25:54.167Z,0.60
2019-06-08T11:28:25.026Z,0.70
2019-06-08T11:30:56.361Z,0.50
2019-06-08T11:33:30.284Z,0.80
2019-06-08T11:36:03.771Z,0.80
2019-06-08T11:38:32.331Z,1.00
2019-06-08T11:41:04.582Z,0.72
2019-06-08T11:43:38.012Z,0.78
2019-06-08T11:46:08.520Z,0.90
2019-06-08T11:48:41.498Z,0.70
2019-06-08T11:51:13.185Z,0.70
2019-06-08T11:53:44.133Z,0.62
2019-06-08T11:56:18.116Z,0.60
2019-06-08T11:58:49.840Z,0.78
2019-06-08T12:01:20.678Z,0.70
2019-06-08T12:03:51.497Z,0.80
2019-06-08T12:06:23.623Z,0.70
2019-06-08T12:08:57.330Z,0.62
2019-06-08T12:11:28.511Z,1.10
2019-06-08T12:13:59.341Z,0.82
2019-06-08T12:16:31.382Z,1.00
2019-06-08T12:19:04.392Z,0.88
2019-06-08T12:21:37.980Z,0.93
2019-06-08T12:24:10.368Z,0.90
2019-06-08T12:26:41.919Z,0.78
2019-06-08T12:29:14.579Z,1.00
2019-06-08T12:31:45.805Z,0.68
2019-06-08T12:34:18.492Z,1.30
2019-06-08T12:36:49.463Z,0.60
2019-06-08T12:39:21.484Z,0.88
2019-06-08T12:41:52.779Z,0.80
2019-06-08T12:44:26.796Z,0.80
2019-06-08T12:46:58.565Z,0.75
2019-06-08T12:49:30.131Z,0.80
2019-06-08T12:52:01.085Z,0.72
2019-06-08T12:54:31.855Z,1.12
2019-06-08T12:57:02.871Z,0.93
2019-06-08T12:59:34.002Z,0.90
2019-06-08T13:02:04.808Z,0.70
2019-06-08T13:04:35.513Z,0.80
2019-06-08T13:07:09.779Z,0.90
2019-06-08T13:09:39.909Z,0.70
2019-06-08T13:12:11.450Z,0.78
2019-06-08T13:14:42.283Z,1.00
2019-06-08T13:17:13.161Z,0.57
2019-06-08T13:19:44.316Z,0.68
2019-06-08T13:22:15.079Z,0.80
2019-06-08T13:24:47.773Z,1.30
2019-06-08T13:27:22.783Z,0.78
2019-06-08T13:29:53.199Z,1.20
2019-06-08T13:32:24.705Z,0.90
2019-06-08T13:34:58.052Z,0.70
2019-06-08T13:37:28.185Z,0.55
2019-06-08T13:39:59.421Z,0.57
2019-06-08T13:42:30.950Z,0.78
2019-06-08T13:45:02.752Z,0.80
2019-06-08T13:47:33.571Z,0.62
2019-06-08T13:50:08.304Z,0.80
2019-06-08T13:52:39.224Z,0.60
2019-06-08T13:55:10.267Z,0.95
2019-06-08T13:57:42.674Z,0.50
2019-06-08T14:00:15.345Z,0.75
2019-06-08T14:02:48.500Z,0.75
2019-06-08T14:05:30.809Z,0.60
2019-06-08T14:08:03.122Z,1.00
2019-06-08T14:10:39.232Z,0.53
2019-06-08T14:13:10.221Z,0.80
2019-06-08T14:15:41.270Z,0.80
2019-06-08T14:18:12.359Z,0.70
2019-06-08T14:20:44.237Z,0.95
2019-06-08T14:23:17.519Z,0.60
2019-06-08T14:25:56.460Z,0.80
2019-06-08T14:28:23.260Z,0.60
2019-06-08T14:30:54.622Z,0.70
2019-06-08T14:33:29.130Z,0.57
2019-06-08T14:35:59.193Z,0.68
2019-06-08T14:38:37.959Z,0.60
2019-06-08T14:41:02.945Z,0.70
2019-06-08T14:43:34.506Z,0.57
2019-06-08T14:46:07.874Z,0.65
2019-06-08T14:48:38.144Z,0.90
2019-06-08T14:51:08.990Z,1.10
2019-06-08T14:53:40.174Z,0.88
2019-06-08T14:56:11.501Z,0.80
2019-06-08T14:58:42.296Z,0.90
2019-06-08T15:01:13.104Z,0.70
2019-06-08T15:03:44.253Z,0.80
2019-06-08T15:06:17.656Z,0.78
2019-06-08T15:08:50.387Z,0.68
2019-06-08T15:11:21.322Z,0.72
2019-06-08T15:13:52.322Z,0.98
2019-06-08T15:16:23.622Z,0.93
2019-06-08T15:19:00.069Z,0.80
2019-06-08T15:21:31.579Z,1.00
2019-06-08T15:24:01.846Z,0.80
2019-06-08T15:26:42.360Z,1.10
2019-06-08T15:29:07.576Z,0.60
2019-06-08T15:31:39.090Z,0.95
2019-06-08T15:34:10.844Z,0.75
2019-06-08T15:36:41.717Z,0.65
2019-06-08T15:39:14.139Z,0.90
2019-06-08T15:41:45.215Z,0.82
2019-06-08T15:44:20.764Z,0.85
2019-06-08T15:46:49.128Z,0.90
2019-06-08T15:49:20.127Z,1.00
2019-06-08T15:51:50.786Z,0.85
2019-06-08T15:54:22.745Z,1.00
2019-06-08T15:56:53.600Z,0.80
2019-06-08T15:59:30.882Z,1.55
2019-06-08T16:01:58.466Z,1.02
2019-06-08T16:04:30.206Z,1.05
2019-06-08T16:07:02.160Z,1.40
2019-06-08T16:09:34.176Z,1.77
2019-06-08T16:12:06.104Z,1.20
2019-06-08T16:14:37.132Z,1.00
2019-06-08T16:17:08.402Z,1.20
2019-06-08T16:19:39.151Z,0.80
2019-06-08T16:22:10.409Z,0.90
2019-06-08T16:24:41.210Z,0.95
2019-06-08T16:27:12.228Z,1.20
2019-06-08T16:29:43.043Z,1.00
2019-06-08T16:32:13.837Z,1.07
2019-06-08T16:34:44.745Z,0.88
2019-06-08T16:37:15.458Z,0.90
2019-06-08T16:39:46.273Z,1.17
2019-06-08T16:42:17.587Z,1.45
2019-06-08T16:44:48.441Z,1.00
2019-06-08T16:47:19.394Z,1.05
2019-06-08T16:49:50.305Z,0.93
2019-06-08T16:52:21.058Z,0.95
2019-06-08T16:54:51.743Z,1.20
2019-06-08T16:57:22.697Z,1.10
2019-06-08T16:59:53.624Z,1.15
2019-06-08T17:02:24.712Z,1.15
2019-06-08T17:04:55.835Z,1.45
2019-06-08T17:07:26.702Z,1.35
2019-06-08T17:09:57.516Z,1.32
2019-06-08T17:12:30.649Z,1.22
2019-06-08T17:15:01.723Z,1.22
2019-06-08T17:17:34.186Z,1.50
2019-06-08T17:20:06.527Z,0.90
2019-06-08T17:22:39.055Z,0.98
2019-06-08T17:25:10.690Z,1.00
2019-06-08T17:27:41.567Z,1.20
2019-06-08T17:30:13.038Z,1.60
2019-06-08T17:32:44.219Z,1.25
2019-06-08T17:35:16.205Z,1.42
2019-06-08T17:37:47.307Z,1.15
2019-06-08T17:40:19.727Z,1.42
2019-06-08T17:42:51.092Z,1.40
2019-06-08T17:45:21.916Z,1.15
2019-06-08T17:47:52.836Z,1.20
2019-06-08T17:50:24.227Z,1.35
2019-06-08T17:52:55.109Z,1.40
2019-06-08T17:55:25.924Z,1.75
2019-06-08T17:57:56.703Z,1.70
2019-06-08T18:00:27.857Z,1.47
2019-06-08T18:03:00.611Z,1.10
2019-06-08T18:05:31.641Z,1.40
2019-06-08T18:08:02.555Z,1.30
2019-06-08T18:10:35.869Z,1.15
2019-06-08T18:13:08.006Z,1.67
2019-06-08T18:15:40.591Z,2.42
2019-06-08T18:18:11.486Z,1.80
2019-06-08T18:20:43.836Z,1.60
2019-06-08T18:23:17.227Z,1.50
2019-06-08T18:25:48.184Z,1.80
2019-06-08T18:28:20.111Z,1.70
2019-06-08T18:30:50.878Z,1.37
2019-06-08T18:33:21.632Z,1.90
2019-06-08T18:35:52.915Z,1.60
2019-06-08T18:38:23.748Z,1.90
2019-06-08T18:40:54.710Z,2.22
2019-06-08T18:43:27.545Z,2.52
2019-06-08T18:45:58.309Z,3.42
2019-06-08T18:48:29.287Z,2.58
2019-06-08T18:51:01.750Z,2.75
2019-06-08T18:53:45.576Z,1.72
2019-06-08T18:56:08.043Z,2.30
2019-06-08T18:58:38.350Z,2.10
2019-06-08T19:01:09.574Z,1.70
2019-06-08T19:03:43.118Z,1.70
2019-06-08T19:06:13.354Z,1.95
2019-06-08T19:08:46.618Z,2.50
2019-06-08T19:11:19.301Z,3.67
2019-06-08T19:13:52.522Z,13.60
2019-06-08T19:16:24.260Z,12.25
2019-06-08T19:18:57.942Z,11.73
2019-06-08T19:21:28.341Z,9.33
2019-06-08T19:23:59.298Z,5.97
2019-06-08T19:26:30.055Z,3.80
2019-06-08T19:29:01.499Z,9.17
2019-06-08T19:31:32.726Z,12.53
2019-06-08T19:34:07.515Z,14.20
2019-06-08T19:36:41.356Z,7.67
2019-06-08T19:39:12.804Z,6.60
2019-06-08T19:41:44.748Z,7.47
2019-06-08T19:44:18.364Z,5.80
2019-06-08T19:46:53.606Z,4.73
2019-06-08T19:49:27.980Z,7.87
2019-06-08T19:51:58.370Z,5.93
2019-06-08T19:54:30.232Z,4.53
2019-06-08T19:57:03.612Z,4.67
2019-06-08T19:59:34.769Z,4.50
2019-06-08T20:02:08.684Z,6.00
2019-06-08T20:04:38.864Z,6.83
2019-06-08T20:07:09.689Z,6.03
2019-06-08T20:09:41.097Z,5.70
2019-06-08T20:12:12.142Z,5.97
2019-06-08T20:14:48.014Z,8.80
2019-06-08T20:17:19.535Z,10.03
2019-06-08T20:19:50.807Z,10.23
2019-06-08T20:22:21.881Z,9.90
2019-06-08T20:24:55.787Z,11.23
2019-06-08T20:27:27.701Z,11.60
2019-06-08T20:29:59.468Z,12.10
2019-06-08T20:32:32.019Z,11.47
2019-06-08T20:35:07.996Z,15.63
2019-06-08T20:37:39.486Z,11.53
2019-06-08T20:40:14.295Z,17.47
2019-06-08T20:42:47.552Z,17.20
2019-06-08T20:45:17.400Z,10.33
2019-06-08T20:47:51.050Z,6.67
2019-06-08T20:50:21.529Z,6.37
2019-06-08T20:52:53.786Z,5.43
2019-06-08T20:55:25.275Z,5.63
2019-06-08T20:57:57.478Z,4.67
2019-06-08T21:00:29.743Z,6.07
2019-06-08T21:03:03.022Z,7.37
2019-06-08T21:05:33.303Z,7.43
2019-06-08T21:08:08.169Z,6.40
2019-06-08T21:10:38.006Z,7.70
2019-06-08T21:13:09.082Z,10.23
2019-06-08T21:15:42.787Z,9.70
2019-06-08T21:18:19.122Z,9.40
2019-06-08T21:20:53.057Z,8.93
2019-06-08T21:23:24.084Z,7.07
2019-06-08T21:25:59.939Z,6.20
2019-06-08T21:28:30.595Z,5.73
2019-06-08T21:31:02.437Z,5.77
2019-06-08T21:33:33.480Z,5.07
2019-06-08T21:36:08.484Z,7.93
2019-06-08T21:38:38.807Z,6.70
2019-06-08T21:41:10.898Z,5.90
2019-06-08T21:43:43.035Z,7.37
2019-06-08T21:46:14.888Z,9.53
2019-06-08T21:48:48.652Z,9.67
2019-06-08T21:51:19.104Z,10.03
2019-06-08T21:53:51.580Z,8.70
2019-06-08T21:56:23.596Z,8.10
2019-06-08T21:58:55.043Z,7.23
2019-06-08T22:01:29.076Z,7.40
2019-06-08T22:04:00.484Z,7.13
2019-06-08T22:06:32.092Z,7.07
2019-06-08T22:09:03.016Z,7.90
2019-06-08T22:11:37.606Z,8.07
2019-06-08T22:14:09.342Z,7.00
2019-06-08T22:16:42.986Z,5.73
2019-06-08T22:19:13.912Z,6.50
2019-06-08T22:21:45.137Z,5.17
2019-06-08T22:24:17.207Z,5.30
2019-06-08T22:26:48.224Z,6.30
2019-06-08T22:29:19.105Z,6.43
2019-06-08T22:31:52.207Z,7.33
2019-06-08T22:34:23.285Z,6.57
2019-06-08T22:36:54.229Z,6.83
2019-06-08T22:39:27.993Z,6.20
2019-06-08T22:42:00.897Z,6.53
2019-06-08T22:44:31.268Z,6.73
2019-06-08T22:47:03.604Z,5.87
2019-06-08T22:49:35.234Z,7.57
2019-06-08T22:52:08.251Z,6.97
2019-06-08T22:54:38.581Z,7.33
2019-06-08T22:57:09.777Z,7.47
2019-06-08T22:59:41.116Z,7.27
2019-06-08T23:02:11.951Z,7.87
2019-06-08T23:04:43.084Z,7.83
2019-06-08T23:07:26.555Z,7.67
2019-06-08T23:09:47.846Z,6.57
2019-06-08T23:12:19.056Z,5.77
2019-06-08T23:14:50.188Z,7.07
2019-06-08T23:17:22.092Z,6.60
2019-06-08T23:19:53.233Z,6.07
2019-06-08T23:22:24.298Z,5.33
2019-06-08T23:24:55.626Z,5.17
2019-06-08T23:27:27.162Z,4.73
2019-06-08T23:30:00.554Z,5.33
2019-06-08T23:32:31.840Z,5.90
2019-06-08T23:35:04.834Z,4.90
2019-06-08T23:37:37.403Z,5.17
2019-06-08T23:40:09.333Z,5.10
2019-06-08T23:42:40.564Z,4.93
2019-06-08T23:45:11.704Z,5.30
2019-06-08T23:47:42.764Z,5.40
2019-06-08T23:50:13.904Z,7.23
2019-06-08T23:52:47.539Z,6.27
2019-06-08T23:55:18.196Z,6.77
2019-06-08T23:57:49.172Z,8.30
